createdAt,value
2022-11-02T00:01:24.450Z,40.17
2022-11-02T00:03:54.564Z,41.90
2022-11-02T00:06:23.238Z,41.93
2022-11-02T00:08:51.993Z,42.90
2022-11-02T00:11:20.960Z,37.70
2022-11-02T00:13:49.786Z,36.73
2022-11-02T00:16:20.705Z,41.80
2022-11-02T00:18:51.893Z,44.17
2022-11-02T00:21:22.808Z,38.27
2022-11-02T00:23:51.803Z,41.53
2022-11-02T00:26:20.897Z,36.60
2022-11-02T00:28:49.550Z,36.47
2022-11-02T00:31:18.357Z,38.87
2022-11-02T00:33:47.024Z,36.70
2022-11-02T00:36:15.881Z,42.37
2022-11-02T00:38:46.384Z,37.60
2022-11-02T00:41:16.089Z,38.93
2022-11-02T00:43:44.758Z,53.27
2022-11-02T00:46:13.358Z,110.37
2022-11-02T00:48:42.046Z,74.70
2022-11-02T00:51:11.473Z,122.10
2022-11-02T00:53:43.270Z,50.07
2022-11-02T00:56:13.939Z,49.93
2022-11-02T00:58:42.639Z,48.23
2022-11-02T01:01:13.062Z,66.10
2022-11-02T01:03:41.885Z,39.77
2022-11-02T01:06:12.025Z,52.10
2022-11-02T01:08:40.819Z,43.17
2022-11-02T01:11:16.604Z,28.00
2022-11-02T01:13:46.282Z,60.40
2022-11-02T01:16:16.163Z,63.30
2022-11-02T01:18:44.862Z,56.87
2022-11-02T01:21:14.625Z,52.37
2022-11-02T01:23:43.519Z,71.37
2022-11-02T01:26:14.629Z,28.53
2022-11-02T01:28:43.656Z,41.43
2022-11-02T01:31:13.962Z,43.27
2022-11-02T01:33:45.929Z,37.73
2022-11-02T01:36:16.286Z,35.70
2022-11-02T01:38:45.128Z,35.43
2022-11-02T01:41:15.310Z,37.87
2022-11-02T01:43:45.135Z,35.03
2022-11-02T01:46:17.871Z,33.10
2022-11-02T01:48:50.086Z,36.43
2022-11-02T01:51:23.304Z,35.57
2022-11-02T01:53:54.336Z,37.93
2022-11-02T01:56:26.352Z,33.70
2022-11-02T01:58:59.424Z,39.03
2022-11-02T02:01:28.736Z,36.90
2022-11-02T02:03:58.335Z,39.83
2022-11-02T02:06:28.358Z,40.83
2022-11-02T02:09:00.367Z,38.47
2022-11-02T02:11:35.147Z,39.07
2022-11-02T02:14:07.117Z,40.87
2022-11-02T02:17:03.356Z,37.43
2022-11-02T02:19:40.838Z,40.17
2022-11-02T02:22:24.540Z,36.70
2022-11-02T02:25:05.317Z,40.07
2022-11-02T02:27:50.207Z,44.87
2022-11-02T02:30:20.225Z,42.43
2022-11-02T02:32:55.788Z,41.07
2022-11-02T02:35:28.415Z,51.23
2022-11-02T02:38:01.692Z,43.37
2022-11-02T02:40:35.145Z,44.10
2022-11-02T02:43:09.730Z,50.07
2022-11-02T02:45:41.543Z,49.37
2022-11-02T02:48:15.166Z,46.77
2022-11-02T02:50:49.516Z,54.50
2022-11-02T02:53:24.587Z,48.07
2022-11-02T02:55:53.966Z,50.03
2022-11-02T02:58:27.837Z,44.30
2022-11-02T03:00:57.985Z,55.43
2022-11-02T03:03:29.296Z,49.20
2022-11-02T03:06:07.792Z,55.47
2022-11-02T03:08:40.765Z,51.43
2022-11-02T03:11:15.035Z,50.40
2022-11-02T03:14:02.276Z,53.67
2022-11-02T03:16:44.970Z,56.53
2022-11-02T03:19:24.232Z,52.87
2022-11-02T03:22:01.442Z,47.50
2022-11-02T03:24:37.631Z,58.87
2022-11-02T03:27:17.669Z,57.57
2022-11-02T03:29:55.132Z,62.30
2022-11-02T03:32:30.394Z,67.60
2022-11-02T03:35:04.632Z,83.63
2022-11-02T03:37:36.634Z,77.27
2022-11-02T03:40:12.139Z,84.40
2022-11-02T03:42:43.530Z,67.13
2022-11-02T03:45:19.990Z,63.27
2022-11-02T03:47:54.713Z,105.23
2022-11-02T03:50:24.788Z,73.97
2022-11-02T03:53:00.183Z,55.47
2022-11-02T03:55:33.078Z,89.00
2022-11-02T03:58:02.276Z,196.47
2022-11-02T04:00:36.428Z,79.77
2022-11-02T04:03:13.209Z,105.73
2022-11-02T04:05:45.266Z,84.70
2022-11-02T04:08:24.474Z,88.67
2022-11-02T04:11:25.798Z,92.70
2022-11-02T04:14:15.280Z,100.50
2022-11-02T04:16:46.945Z,39.73
2022-11-02T04:19:30.358Z,107.40
2022-11-02T04:22:36.709Z,94.23
2022-11-02T04:25:22.166Z,39.97
2022-11-02T04:27:57.294Z,98.23
2022-11-02T04:30:31.590Z,80.20
2022-11-02T04:33:20.810Z,128.57
2022-11-02T04:36:03.528Z,187.83
2022-11-02T04:38:42.554Z,199.57
2022-11-02T04:41:43.225Z,172.33
2022-11-02T04:44:28.797Z,196.00
2022-11-02T04:47:07.736Z,215.20
2022-11-02T04:49:39.273Z,251.47
2022-11-02T04:52:12.009Z,239.70
2022-11-02T04:54:46.551Z,252.47
2022-11-02T04:57:15.317Z,315.13
2022-11-02T04:59:45.130Z,271.47
2022-11-02T05:02:14.982Z,186.20
2022-11-02T05:04:46.870Z,214.07
2022-11-02T05:07:16.346Z,157.60
2022-11-02T05:09:45.065Z,126.23
2022-11-02T05:12:15.082Z,154.80
2022-11-02T05:14:43.905Z,120.93
2022-11-02T05:17:13.849Z,122.10
2022-11-02T05:19:42.615Z,106.47
2022-11-02T05:22:13.439Z,97.77
2022-11-02T05:24:42.300Z,125.63
2022-11-02T05:27:11.252Z,158.57
2022-11-02T05:29:40.883Z,175.67
2022-11-02T05:32:09.802Z,129.83
2022-11-02T05:34:39.813Z,110.83
2022-11-02T05:37:12.526Z,102.53
2022-11-02T05:39:43.137Z,102.57
2022-11-02T05:42:15.183Z,92.47
2022-11-02T05:44:43.953Z,110.43
2022-11-02T05:47:12.926Z,75.03
2022-11-02T05:49:41.730Z,89.37
2022-11-02T05:52:10.475Z,90.90
2022-11-02T05:54:40.665Z,83.23
2022-11-02T05:57:09.360Z,69.53
2022-11-02T05:59:37.966Z,72.80
2022-11-02T06:02:07.849Z,69.13
2022-11-02T06:04:36.467Z,62.87
2022-11-02T06:07:05.269Z,74.27
2022-11-02T06:09:33.904Z,66.00
2022-11-02T06:12:04.542Z,61.80
2022-11-02T06:14:33.386Z,67.37
2022-11-02T06:17:02.039Z,57.83
2022-11-02T06:19:30.613Z,58.60
2022-11-02T06:21:59.119Z,79.53
2022-11-02T06:24:27.724Z,73.80
2022-11-02T06:26:56.527Z,56.40
2022-11-02T06:29:27.368Z,57.80
2022-11-02T06:31:55.975Z,57.50
2022-11-02T06:34:24.488Z,49.40
2022-11-02T06:36:53.310Z,58.70
2022-11-02T06:39:22.460Z,48.00
2022-11-02T06:41:51.072Z,51.20
2022-11-02T06:44:19.759Z,50.83
2022-11-02T06:46:50.494Z,50.90
2022-11-02T06:49:19.211Z,53.23
2022-11-02T06:51:47.751Z,47.40
2022-11-02T06:54:16.338Z,47.47
2022-11-02T06:56:44.918Z,39.10
2022-11-02T06:59:13.459Z,37.03
2022-11-02T07:01:42.428Z,38.33
2022-11-02T07:04:12.479Z,37.70
2022-11-02T07:06:41.041Z,35.53
2022-11-02T07:09:09.703Z,32.37
2022-11-02T07:11:39.479Z,29.60
2022-11-02T07:14:08.266Z,28.10
2022-11-02T07:16:36.830Z,28.03
2022-11-02T07:19:05.363Z,27.30
2022-11-02T07:21:35.345Z,25.63
2022-11-02T07:24:03.928Z,24.20
2022-11-02T07:26:32.901Z,23.40
2022-11-02T07:29:01.593Z,26.47
2022-11-02T07:31:32.265Z,21.47
2022-11-02T07:34:00.945Z,21.87
2022-11-02T07:36:29.632Z,20.43
2022-11-02T07:38:59.953Z,19.93
2022-11-02T07:41:28.537Z,16.00
2022-11-02T07:43:57.232Z,14.87
2022-11-02T07:46:36.898Z,22.40
2022-11-02T07:49:05.586Z,20.10
2022-11-02T07:51:34.276Z,16.13
2022-11-02T07:54:04.695Z,16.60
2022-11-02T07:56:33.362Z,14.10
2022-11-02T07:59:02.269Z,12.53
2022-11-02T08:01:30.988Z,12.87
2022-11-02T08:03:59.739Z,13.87
2022-11-02T08:06:28.446Z,13.67
2022-11-02T08:08:58.153Z,14.73
2022-11-02T08:11:29.548Z,12.70
2022-11-02T08:13:58.879Z,12.10
2022-11-02T08:16:27.811Z,12.57
2022-11-02T08:18:59.008Z,11.30
2022-11-02T08:21:28.104Z,11.83
2022-11-02T08:23:58.727Z,12.83
2022-11-02T08:26:28.855Z,12.53
2022-11-02T08:28:57.761Z,12.80
2022-11-02T08:31:26.448Z,10.90
2022-11-02T08:33:55.114Z,12.60
2022-11-02T08:36:23.834Z,12.87
2022-11-02T08:38:52.562Z,13.57
2022-11-02T08:41:21.264Z,11.17
2022-11-02T08:43:51.386Z,7.60
2022-11-02T08:46:20.196Z,11.70
2022-11-02T08:48:48.870Z,10.77
2022-11-02T08:51:17.403Z,12.07
2022-11-02T08:53:51.387Z,13.17
2022-11-02T08:56:20.391Z,14.83
2022-11-02T08:58:50.312Z,13.17
2022-11-02T09:01:18.954Z,8.20
2022-11-02T09:03:47.546Z,9.87
2022-11-02T09:06:16.134Z,8.77
2022-11-02T09:08:44.644Z,10.77
2022-11-02T09:11:13.346Z,14.23
2022-11-02T09:13:42.280Z,11.87
2022-11-02T09:16:12.614Z,12.47
2022-11-02T09:18:41.242Z,10.67
2022-11-02T09:21:10.011Z,7.23
2022-11-02T09:23:38.734Z,17.10
2022-11-02T09:26:07.591Z,11.53
2022-11-02T09:28:36.092Z,14.00
2022-11-02T09:31:08.896Z,11.53
2022-11-02T09:33:41.521Z,11.03
2022-11-02T09:36:10.709Z,9.33
2022-11-02T09:38:39.474Z,11.83
2022-11-02T09:41:15.512Z,49.93
2022-11-02T09:43:53.050Z,12.43
2022-11-02T09:46:27.051Z,18.73
2022-11-02T09:48:59.868Z,15.87
2022-11-02T09:51:33.760Z,10.70
2022-11-02T09:54:13.150Z,9.57
2022-11-02T09:56:47.097Z,12.37
2022-11-02T09:59:19.468Z,6.80
2022-11-02T10:02:03.996Z,8.77
2022-11-02T10:05:05.154Z,15.93
2022-11-02T10:08:08.410Z,10.43
2022-11-02T10:10:40.713Z,11.67
2022-11-02T10:13:24.033Z,9.93
2022-11-02T10:15:57.102Z,12.20
2022-11-02T10:18:27.465Z,8.53
2022-11-02T10:21:00.579Z,10.17
2022-11-02T10:23:33.663Z,7.60
2022-11-02T10:26:03.605Z,8.10
2022-11-02T10:28:35.911Z,11.17
2022-11-02T10:31:05.292Z,9.27
2022-11-02T10:33:33.825Z,8.53
2022-11-02T10:36:22.831Z,8.43
2022-11-02T10:39:03.729Z,7.73
2022-11-02T10:41:49.062Z,9.57
2022-11-02T10:44:31.365Z,7.70
2022-11-02T10:47:10.106Z,10.67
2022-11-02T10:50:08.081Z,12.23
2022-11-02T10:52:44.853Z,10.77
2022-11-02T10:55:22.696Z,8.30
2022-11-02T10:57:53.404Z,8.67
2022-11-02T11:00:33.765Z,6.83
2022-11-02T11:03:11.168Z,10.07
2022-11-02T11:05:59.300Z,10.73
2022-11-02T11:08:37.829Z,7.53
2022-11-02T11:11:16.222Z,8.43
2022-11-02T11:16:45.768Z,7.60
2022-11-02T11:19:42.367Z,13.93
2022-11-02T11:22:28.683Z,7.97
2022-11-02T11:25:27.148Z,8.90
2022-11-02T11:27:58.564Z,9.03
2022-11-02T11:33:20.676Z,14.30
2022-11-02T11:35:51.549Z,8.13
2022-11-02T11:38:22.822Z,6.87
2022-11-02T11:40:57.623Z,12.43
2022-11-02T11:43:29.685Z,9.33
2022-11-02T11:46:05.358Z,10.70
2022-11-02T11:48:41.396Z,6.43
2022-11-02T11:51:29.597Z,9.63
2022-11-02T11:54:23.557Z,8.27
2022-11-02T11:56:55.164Z,6.87
2022-11-02T11:59:27.252Z,10.33
2022-11-02T12:01:59.210Z,7.63
2022-11-02T12:04:29.533Z,8.07
2022-11-02T12:07:13.843Z,8.97
2022-11-02T12:09:47.928Z,6.53
2022-11-02T12:12:27.692Z,6.43
2022-11-02T12:15:07.219Z,5.63
2022-11-02T12:17:56.440Z,6.20
2022-11-02T12:20:47.968Z,10.63
2022-11-02T12:23:33.959Z,8.13
2022-11-02T12:26:15.413Z,9.13
2022-11-02T12:28:54.414Z,11.97
2022-11-02T12:31:34.288Z,7.37
2022-11-02T12:34:20.508Z,6.93
2022-11-02T12:40:03.387Z,9.70
2022-11-02T12:42:39.247Z,5.87
2022-11-02T12:45:26.442Z,8.80
2022-11-02T12:47:59.323Z,8.93
2022-11-02T12:50:37.877Z,8.13
2022-11-02T12:53:20.168Z,7.77
2022-11-02T12:55:53.258Z,5.87
2022-11-02T12:58:27.377Z,15.73
2022-11-02T13:01:01.809Z,6.20
2022-11-02T13:03:39.731Z,9.37
2022-11-02T13:06:17.262Z,10.30
2022-11-02T13:08:51.298Z,10.60
2022-11-02T13:11:25.181Z,7.90
2022-11-02T13:13:57.790Z,7.30
2022-11-02T13:16:36.619Z,6.67
2022-11-02T13:19:06.761Z,9.37
2022-11-02T13:21:43.961Z,4.87
2022-11-02T13:24:19.736Z,10.90
2022-11-02T13:26:57.200Z,9.40
2022-11-02T13:29:38.750Z,7.07
2022-11-02T13:32:18.361Z,6.50
2022-11-02T13:34:49.503Z,11.40
2022-11-02T13:37:23.833Z,6.80
2022-11-02T13:39:56.710Z,8.17
2022-11-02T13:42:48.462Z,10.27
2022-11-02T13:45:44.288Z,8.03
2022-11-02T13:48:39.966Z,12.20
2022-11-02T13:51:15.881Z,10.40
2022-11-02T13:53:53.525Z,9.63
2022-11-02T13:56:28.436Z,8.80
2022-11-02T13:59:03.120Z,8.50
2022-11-02T14:01:36.685Z,8.17
2022-11-02T14:04:09.916Z,6.67
2022-11-02T14:06:48.968Z,10.43
2022-11-02T14:09:29.957Z,5.00
2022-11-02T14:12:43.213Z,7.17
2022-11-02T14:15:42.689Z,7.80
2022-11-02T14:18:26.718Z,5.97
2022-11-02T14:20:59.020Z,6.60
2022-11-02T14:23:41.218Z,8.17
2022-11-02T14:26:32.939Z,10.90
2022-11-02T14:29:06.688Z,10.03
2022-11-02T14:31:53.624Z,6.27
2022-11-02T14:34:37.866Z,6.93
2022-11-02T14:37:31.545Z,7.53
2022-11-02T14:40:06.259Z,8.43
2022-11-02T14:42:53.557Z,8.37
2022-11-02T14:45:36.718Z,8.67
2022-11-02T14:48:07.354Z,5.17
2022-11-02T14:50:36.172Z,11.93
2022-11-02T14:53:09.834Z,6.03
2022-11-02T14:55:40.688Z,7.23
2022-11-02T14:58:18.878Z,6.17
2022-11-02T15:00:59.755Z,10.87
2022-11-02T15:03:37.318Z,13.93
2022-11-02T15:06:13.792Z,8.33
2022-11-02T15:08:54.317Z,7.87
2022-11-02T15:11:45.464Z,13.07
2022-11-02T15:14:35.201Z,9.37
2022-11-02T15:17:24.742Z,8.57
2022-11-02T15:20:27.555Z,11.37
2022-11-02T15:23:01.090Z,16.47
2022-11-02T15:25:34.134Z,7.97
2022-11-02T15:28:08.712Z,11.53
2022-11-02T15:30:43.792Z,7.70
2022-11-02T15:33:21.234Z,11.17
2022-11-02T15:35:54.341Z,9.37
2022-11-02T15:38:35.243Z,11.70
2022-11-02T15:41:15.587Z,12.83
2022-11-02T15:44:11.949Z,8.13
2022-11-02T15:46:53.559Z,9.17
2022-11-02T15:49:59.553Z,6.63
2022-11-02T15:53:01.980Z,9.70
2022-11-02T15:55:47.392Z,7.93
2022-11-02T15:58:29.277Z,9.53
2022-11-02T16:01:17.966Z,9.67
2022-11-02T16:03:48.619Z,7.63
2022-11-02T16:06:26.293Z,9.13
2022-11-02T16:08:57.916Z,13.83
2022-11-02T16:11:26.882Z,8.73
2022-11-02T16:14:16.204Z,8.93
2022-11-02T16:16:49.362Z,13.27
2022-11-02T16:19:21.179Z,11.37
2022-11-02T16:21:50.840Z,9.97
2022-11-02T16:24:21.417Z,8.50
2022-11-02T16:26:51.088Z,13.80
2022-11-02T16:29:28.121Z,9.27
2022-11-02T16:31:56.780Z,16.37
2022-11-02T16:34:30.878Z,13.10
2022-11-02T16:37:00.147Z,7.63
2022-11-02T16:39:34.498Z,12.70
2022-11-02T16:42:08.664Z,11.40
2022-11-02T16:44:37.498Z,16.30
2022-11-02T16:47:18.451Z,9.10
2022-11-02T16:50:05.918Z,9.80
2022-11-02T16:52:36.036Z,8.07
2022-11-02T16:55:37.437Z,8.97
2022-11-02T16:58:08.068Z,11.77
2022-11-02T17:00:37.769Z,10.10
2022-11-02T17:03:11.059Z,9.60
2022-11-02T17:05:43.397Z,8.13
2022-11-02T17:08:33.110Z,8.27
2022-11-02T17:11:05.691Z,15.00
2022-11-02T17:13:38.776Z,12.63
2022-11-02T17:16:11.454Z,12.53
2022-11-02T17:18:40.447Z,13.87
2022-11-02T17:21:26.834Z,13.03
2022-11-02T17:23:57.212Z,10.83
2022-11-02T17:26:36.207Z,12.97
2022-11-02T17:29:33.340Z,12.03
2022-11-02T17:32:02.067Z,13.00
2022-11-02T17:34:31.762Z,11.73
2022-11-02T17:37:00.489Z,9.70
2022-11-02T17:39:29.202Z,11.90
2022-11-02T17:42:17.282Z,10.87
2022-11-02T17:44:45.971Z,16.07
2022-11-02T17:47:16.701Z,13.33
2022-11-02T17:49:45.516Z,4.77
2022-11-02T17:52:16.480Z,4.77
2022-11-02T17:54:45.177Z,12.80
2022-11-02T17:57:17.279Z,6.63
2022-11-02T17:59:46.388Z,6.50
2022-11-02T18:02:17.269Z,8.47
2022-11-02T18:04:46.096Z,5.17
2022-11-02T18:07:14.824Z,3.47
2022-11-02T18:09:43.515Z,5.00
2022-11-02T18:12:16.425Z,10.37
2022-11-02T18:14:45.883Z,5.43
2022-11-02T18:17:14.566Z,7.23
2022-11-02T18:19:43.177Z,12.83
2022-11-02T18:22:15.129Z,10.67
2022-11-02T18:24:44.218Z,5.77
2022-11-02T18:27:12.891Z,6.43
2022-11-02T18:29:43.123Z,7.20
2022-11-02T18:32:11.732Z,13.27
2022-11-02T18:34:40.334Z,9.67
2022-11-02T18:37:09.001Z,8.47
2022-11-02T18:39:38.046Z,13.87
2022-11-02T18:42:06.779Z,12.17
2022-11-02T18:44:35.752Z,13.73
2022-11-02T18:47:06.011Z,16.33
2022-11-02T18:49:34.631Z,11.63
2022-11-02T18:52:03.245Z,12.17
2022-11-02T18:54:31.888Z,14.30
2022-11-02T18:57:00.556Z,12.20
2022-11-02T18:59:29.104Z,14.70
2022-11-02T19:01:57.898Z,16.57
2022-11-02T19:04:28.042Z,14.40
2022-11-02T19:07:16.305Z,15.03
2022-11-02T19:09:45.470Z,18.30
2022-11-02T19:12:17.849Z,21.00
2022-11-02T19:14:49.562Z,17.17
2022-11-02T19:17:18.289Z,18.83
2022-11-02T19:19:48.883Z,21.63
2022-11-02T19:22:18.624Z,16.13
2022-11-02T19:24:47.471Z,16.57
2022-11-02T19:27:17.568Z,14.20
2022-11-02T19:29:46.137Z,15.43
2022-11-02T19:32:15.389Z,16.97
2022-11-02T19:34:44.062Z,13.20
2022-11-02T19:37:14.627Z,16.00
2022-11-02T19:39:43.283Z,10.70
2022-11-02T19:42:11.860Z,17.13
2022-11-02T19:44:42.675Z,13.20
2022-11-02T19:47:11.830Z,16.00
2022-11-02T19:49:40.506Z,17.40
2022-11-02T19:52:09.090Z,12.27
2022-11-02T19:54:39.082Z,12.47
2022-11-02T19:57:07.687Z,14.63
2022-11-02T19:59:36.370Z,14.10
2022-11-02T20:02:04.977Z,12.20
2022-11-02T20:04:38.043Z,12.10
2022-11-02T20:07:09.647Z,17.87
2022-11-02T20:09:39.751Z,18.50
2022-11-02T20:12:08.745Z,15.10
2022-11-02T20:14:38.400Z,14.73
2022-11-02T20:19:55.947Z,19.43
2022-11-02T20:22:24.477Z,15.93
2022-11-02T20:24:54.439Z,14.50
2022-11-02T20:27:23.152Z,15.00
2022-11-02T20:29:51.825Z,17.47
2022-11-02T20:32:23.677Z,16.73
2022-11-02T20:34:52.444Z,12.77
2022-11-02T20:37:21.024Z,15.80
2022-11-02T20:39:49.952Z,12.63
2022-11-02T20:42:19.859Z,13.47
2022-11-02T20:44:49.491Z,15.50
2022-11-02T20:47:18.012Z,17.80
2022-11-02T20:49:51.226Z,12.30
2022-11-02T20:52:22.016Z,14.13
2022-11-02T20:54:50.674Z,16.63
2022-11-02T20:57:22.083Z,20.50
2022-11-02T20:59:50.693Z,14.67
2022-11-02T21:02:22.172Z,13.90
2022-11-02T21:04:50.937Z,14.53
2022-11-02T21:07:19.793Z,18.57
2022-11-02T21:09:48.316Z,13.90
2022-11-02T21:12:34.487Z,16.23
2022-11-02T21:15:05.853Z,17.40
2022-11-02T21:17:36.141Z,22.77
2022-11-02T21:22:53.995Z,18.07
2022-11-02T21:25:22.598Z,18.17
2022-11-02T21:27:51.381Z,17.03
2022-11-02T21:30:21.591Z,15.70
2022-11-02T21:32:51.413Z,17.07
2022-11-02T21:35:20.032Z,18.60
2022-11-02T21:37:48.934Z,21.33
2022-11-02T21:40:17.599Z,17.67
2022-11-02T21:42:46.129Z,15.00
2022-11-02T21:45:18.009Z,14.50
2022-11-02T21:47:50.545Z,17.60
2022-11-02T21:50:19.240Z,17.37
2022-11-02T21:52:47.800Z,16.83
2022-11-02T21:55:16.479Z,20.23
2022-11-02T21:57:45.036Z,18.37
2022-11-02T22:00:14.666Z,17.73
2022-11-02T22:02:42.337Z,17.17
2022-11-02T22:05:32.294Z,18.23
2022-11-02T22:08:18.692Z,28.00
2022-11-02T22:10:47.389Z,18.93
2022-11-02T22:13:34.154Z,18.53
2022-11-02T22:16:16.974Z,19.17
2022-11-02T22:18:47.034Z,21.60
2022-11-02T22:21:18.492Z,17.87
2022-11-02T22:23:48.462Z,21.37
2022-11-02T22:26:19.206Z,20.23
2022-11-02T22:28:48.207Z,17.17
2022-11-02T22:31:18.975Z,20.43
2022-11-02T22:33:48.939Z,15.90
2022-11-02T22:36:21.231Z,14.20
2022-11-02T22:38:51.482Z,17.53
2022-11-02T22:41:22.286Z,16.30
2022-11-02T22:43:53.422Z,14.97
2022-11-02T22:46:23.282Z,16.23
2022-11-02T22:48:53.018Z,18.67
2022-11-02T22:51:24.933Z,15.90
2022-11-02T22:53:54.153Z,14.47
2022-11-02T22:56:24.154Z,13.23
2022-11-02T22:58:52.707Z,15.30
2022-11-02T23:01:23.144Z,17.87
2022-11-02T23:03:52.206Z,15.90
2022-11-02T23:06:23.233Z,18.43
2022-11-02T23:08:53.846Z,15.13
2022-11-02T23:11:23.595Z,22.83
2022-11-02T23:13:56.029Z,18.93
2022-11-02T23:16:26.565Z,19.47
2022-11-02T23:19:17.867Z,15.27
2022-11-02T23:22:12.478Z,12.90
2022-11-02T23:25:00.016Z,15.30
2022-11-02T23:27:29.148Z,14.50
2022-11-02T23:30:15.302Z,15.43
2022-11-02T23:32:43.890Z,16.43
2022-11-02T23:35:29.678Z,18.07
2022-11-02T23:38:07.672Z,18.10
2022-11-02T23:40:36.287Z,15.30
2022-11-02T23:43:06.296Z,13.27
2022-11-02T23:45:35.226Z,17.20
2022-11-02T23:48:07.155Z,16.33
2022-11-02T23:50:54.240Z,23.53
2022-11-02T23:53:42.604Z,17.40
2022-11-02T23:56:34.010Z,21.50
2022-11-02T23:59:09.413Z,21.23
